Gualala, CA

5:23 PM PDT on May 24, 2015 (GMT -0700)
Ocean Ridge | | Change Station
CLOSE
Current Station
Personal Weather Station
Location: Gualala, CA
Elevation: 900 ft
Nearby Weather Stations

Elev 900 ft 38.80 °N, 123.53 °W | Updated 52 seconds ago

Clear
Clear
59.7 °F
Feels Like 59.7 °F
N
2.2
Wind Variable Wind from NNW
Gusts 3.8 mph

Today
High -- | Low -- °F
--% Chance of Precip.
Yesterday
High -- | Low -- °F
Precip. -- in
5:55 AM 8:27 PM
Waxing Crescent, 43% visible
Pressure 29.85 in
Visibility 10.0 miles
Clouds Clear
Dew Point 45 °F
Humidity 59%
Rainfall 0.00 in
Snow Depth Not available.
UV 5 out of 12
Pollen 6.00 out of 12
Air Quality Not available.
Flu Activity Sporadic
METAR KUKI 242356Z AUTO 02007G16KT 320V080 10SM CLR 28/11 A2987 RMK AO2 SLP107 T02780106 10294 20228 57009

More Conditions Fewer Conditions

Pressure 29.85 in
Visibility 10.0 miles
Clouds Clear
Dew Point 45 °F
Humidity 59%
Rainfall 0.00 in
Snow Depth Not available.
UV 5 out of 12
Pollen 6.00 out of 12
Air Quality Not available.
Flu Activity Sporadic
METAR KUKI 242356Z AUTO 02007G16KT 320V080 10SM CLR 28/11 A2987 RMK AO2 SLP107 T02780106 10294 20228 57009

More Conditions Fewer Conditions

10-Day Weather Forecast

Almanac

Astronomy

May. 24, 2015 Rise Set
Actual Time
Civil Twilight
Nautical Twilight
Astronomical Twilight
Moon
Length of Visible Light
Length of Day
Tomorrow will be .
, % of the Moon is Illuminated

Today's Extremes

State Highs State Lows

Community

WunderPhotos

Upload Photos

1,823,904 photos uploaded!

WunderBlogs® & News

Nearby

Air Quality

  Air Quality AQ Index Pollutant
Not available.

Snow Depth

Station Depth Elevation

Earthquake Activity

City Distance Mag. Time & Date
Minimum magnitude displayed is 2.5.

Coastal Water Temperatures

Place Temperature

Stations

Nearby Weather Stations

Station Location Temp. Windchill Dew Point Humidity Wind Precip. Elev Updated Type